Terminal Aerodrome Forecast
Issued by NWS Brownsville, TX

Home | Current Version | Previous Version | Text Only | Print | Product List | Glossary On
Versions: 1 2 3 4 5 6 7 8 9 10 11 12 13 14 15 16 17 18 19 20 21 22 23 24 25
000
FTUS44 KBRO 311740
TAFMFE
TAF
KMFE 311740Z 3118/0118 08008KT P6SM FEW035 BKN200
     FM010500 VRB04KT P6SM FEW050 BKN250
     FM011500 09008KT P6SM SCT035 BKN150=

USA.gov is the U.S. government's official web portal to all federal, state and local government web resources and services.